Time;durP1;ratioP1;P1;durP2;ratioP2;P2;SDS_P1;SDS_P2;PMS_P1;PMS_P2;Temp;Humidity;BMP_temperature;BMP_pressure;BME280_temperature;BME280_humidity;BME280_pressure;Samples;Min_cycle;Max_cycle;Signal;HPM_P1;HPM_P2
2022/08/06 11:56:37;;;;;;;67.07;12.20;;;;;;;24.71;41.40;100220.34;4763522;27;8315647;-64
2022/08/06 11:59:13;;;;;;;47.25;9.88;;;;;;;24.47;42.42;100176.25;5013362;28;20057;-66
2022/08/06 12:01:46;;;;;;;16.25;7.90;;;;;;;26.17;41.11;100213.59;5012214;28;20572;-61
2022/08/06 12:04:38;;;;;;;16.65;9.50;;;;;;;27.13;40.10;100211.34;5037327;28;20511;-60
2022/08/06 12:07:27;;;;;;;11.27;9.02;;;;;;;27.52;39.94;100204.06;5034559;28;20067;-64
2022/08/06 12:10:17;;;;;;;13.70;8.45;;;;;;;27.86;39.81;100203.38;5036623;28;20061;-63
2022/08/06 12:12:48;;;;;;;20.23;10.20;;;;;;;27.93;40.05;100202.84;5039166;28;20132;-63
2022/08/06 12:15:16;;;;;;;12.18;9.20;;;;;;;28.23;40.10;100208.69;5035686;28;21166;-63
2022/08/06 12:17:54;;;;;;;15.98;8.85;;;;;;;28.34;40.22;100214.97;5037635;28;20137;-63
2022/08/06 12:20:39;;;;;;;11.63;7.85;;;;;;;28.40;40.09;100206.41;5044905;28;20155;-61
2022/08/06 12:23:15;;;;;;;10.93;8.70;;;;;;;28.56;40.33;100192.56;5035370;28;20143;-62
2022/08/06 12:25:43;;;;;;;12.48;8.70;;;;;;;28.68;40.43;100193.47;5040661;28;20561;-61
2022/08/06 12:28:13;;;;;;;19.10;8.30;;;;;;;28.70;40.40;100193.31;5040562;28;20033;-62
2022/08/06 12:30:54;;;;;;;12.20;8.55;;;;;;;28.93;40.59;100191.50;5043808;28;20044;-63
2022/08/06 12:33:20;;;;;;;12.13;7.55;;;;;;;28.73;40.90;100156.16;5038518;28;20470;-64
2022/08/06 12:35:50;;;;;;;11.05;8.30;;;;;;;29.18;41.13;100183.16;5037966;28;20449;-63
2022/08/06 12:38:16;;;;;;;11.48;8.02;;;;;;;29.08;41.93;100184.91;5037933;28;20623;-64
2022/08/06 12:40:52;;;;;;;17.83;7.97;;;;;;;29.22;41.61;100190.03;5043294;28;20140;-65
2022/08/06 12:43:17;;;;;;;17.95;7.43;;;;;;;29.43;41.80;100186.53;5037601;28;20388;-64
2022/08/06 12:45:43;;;;;;;13.32;8.05;;;;;;;29.55;41.77;100190.06;5039671;28;20033;-64
2022/08/06 12:48:11;;;;;;;15.48;8.82;;;;;;;29.56;41.57;100178.25;5040055;28;20090;-64
2022/08/06 12:50:42;;;;;;;22.90;8.40;;;;;;;29.56;41.52;100189.94;5045317;28;20052;-66
2022/08/06 12:53:09;;;;;;;11.95;8.10;;;;;;;29.10;42.42;100122.59;5041778;28;20049;-74
2022/08/06 12:55:52;;;;;;;12.48;7.50;;;;;;;28.21;42.64;100176.41;5054476;28;22759;-71
2022/08/06 21:17:14;;;;;;;51.78;10.50;;;;;;;26.43;57.54;100240.53;4762009;27;8399786;-73
2022/08/06 21:19:42;;;;;;;28.75;9.98;;;;;;;26.50;57.60;100240.03;5021083;28;20497;-70
2022/08/06 21:22:07;;;;;;;17.52;8.80;;;;;;;26.28;57.85;100183.28;5023883;28;20037;-67
2022/08/06 21:24:33;;;;;;;13.52;7.45;;;;;;;26.77;57.42;100238.25;5034080;28;20087;-69
2022/08/06 21:26:59;;;;;;;13.95;8.60;;;;;;;26.91;56.79;100246.22;5032456;28;21055;-67
2022/08/06 21:29:25;;;;;;;15.98;8.90;;;;;;;27.00;56.05;100228.53;5030084;28;20049;-68
2022/08/06 21:31:51;;;;;;;14.20;8.88;;;;;;;27.07;55.13;100222.59;5030599;28;20243;-67
2022/08/06 21:34:16;;;;;;;14.20;8.65;;;;;;;27.34;54.76;100240.44;5034338;28;20145;-70
2022/08/06 21:36:42;;;;;;;12.38;7.13;;;;;;;27.51;54.64;100244.59;5030899;28;20036;-68
2022/08/06 21:39:07;;;;;;;14.18;8.75;;;;;;;27.67;53.85;100247.88;5029420;28;20472;-69
2022/08/06 21:41:33;;;;;;;10.23;7.55;;;;;;;27.76;53.88;100246.34;5032224;28;20048;-70
2022/08/06 21:44:00;;;;;;;16.15;9.30;;;;;;;27.90;53.71;100240.81;5032359;28;20504;-70
2022/08/06 21:46:27;;;;;;;12.48;7.85;;;;;;;28.05;53.45;100252.28;5027240;28;20040;-70
2022/08/06 21:48:53;;;;;;;9.15;7.20;;;;;;;28.15;53.33;100247.91;5031312;28;21642;-70
2022/08/06 21:51:21;;;;;;;12.43;7.43;;;;;;;28.25;52.99;100245.34;5033224;28;20179;-70
2022/08/06 21:53:47;;;;;;;16.33;7.97;;;;;;;28.35;52.74;100251.78;5031365;28;20029;-70
2022/08/06 21:56:12;;;;;;;10.48;7.55;;;;;;;28.41;52.54;100242.34;5035265;28;20471;-68
2022/08/06 21:58:38;;;;;;;10.82;7.32;;;;;;;28.53;52.01;100248.66;5031122;28;20073;-68
2022/08/06 22:01:03;;;;;;;12.45;7.55;;;;;;;28.58;51.82;100251.84;5030707;28;20029;-70
2022/08/06 22:03:29;;;;;;;9.30;7.22;;;;;;;28.62;51.90;100246.09;5031681;28;20041;-70
2022/08/06 22:05:55;;;;;;;10.63;7.97;;;;;;;28.74;51.55;100248.81;5031332;28;20057;-69
2022/08/06 22:08:20;;;;;;;11.48;7.82;;;;;;;28.78;51.49;100242.22;5030526;28;20045;-71
2022/08/06 22:10:46;;;;;;;16.95;7.90;;;;;;;28.26;51.23;100154.47;5031343;28;20056;-70
2022/08/06 22:13:11;;;;;;;14.85;7.70;;;;;;;28.36;51.22;100159.03;5029335;28;20051;-71
2022/08/06 22:15:37;;;;;;;15.93;7.30;;;;;;;28.94;51.17;100249.94;5039142;28;20133;-72
2022/08/06 22:18:03;;;;;;;10.85;7.80;;;;;;;28.95;51.25;100247.13;5053145;28;20045;-71
2022/08/06 22:20:30;;;;;;;15.35;7.95;;;;;;;29.01;50.83;100243.94;5053109;28;20621;-71
2022/08/06 22:22:58;;;;;;;10.00;8.13;;;;;;;29.09;50.53;100246.03;5045288;28;20140;-70
2022/08/06 22:25:24;;;;;;;18.33;7.95;;;;;;;29.08;50.64;100241.63;5031446;28;20479;-71
2022/08/06 22:27:52;;;;;;;8.32;7.00;;;;;;;29.08;50.71;100241.63;5041367;28;20179;-71
2022/08/06 22:30:32;;;;;;;9.18;7.32;;;;;;;28.60;50.30;100150.84;5038088;28;20044;-69
2022/08/06 22:33:11;;;;;;;8.18;6.82;;;;;;;29.17;50.60;100238.19;5038248;28;20420;-68
2022/08/06 22:35:38;;;;;;;9.68;6.72;;;;;;;29.24;50.46;100238.53;5037611;28;20053;-68
2022/08/06 22:38:05;;;;;;;9.52;6.63;;;;;;;29.08;49.56;100217.31;5036833;28;21108;-68
2022/08/06 22:40:32;;;;;;;8.88;6.53;;;;;;;28.61;48.86;100240.81;5040336;28;20043;-69
2022/08/06 22:42:58;;;;;;;9.68;7.25;;;;;;;27.13;48.51;100138.63;5039837;28;20647;-67
2022/08/06 22:45:24;;;;;;;6.82;6.05;;;;;;;27.17;47.72;100250.56;5037988;28;20591;-69
2022/08/06 22:47:49;;;;;;;9.43;7.38;;;;;;;26.87;47.62;100236.63;5040215;28;20068;-68
2022/08/06 22:50:15;;;;;;;9.85;6.97;;;;;;;26.70;47.36;100235.13;5037664;28;20178;-68
2022/08/06 22:52:41;;;;;;;7.93;6.63;;;;;;;26.35;47.26;100235.69;5037525;28;20160;-68
2022/08/06 22:55:06;;;;;;;9.02;7.50;;;;;;;26.39;46.88;100239.06;5040573;28;20106;-69
2022/08/06 22:57:32;;;;;;;10.63;7.40;;;;;;;26.28;46.16;100243.31;5024261;28;20059;-68
2022/08/06 22:59:58;;;;;;;8.40;6.90;;;;;;;26.03;45.96;100232.50;5028329;28;20048;-68
2022/08/06 23:02:24;;;;;;;11.65;6.95;;;;;;;25.96;46.07;100242.81;5037206;28;20790;-69
2022/08/06 23:04:49;;;;;;;11.77;6.88;;;;;;;25.79;45.49;100240.38;5036460;28;20385;-69
2022/08/06 23:07:16;;;;;;;8.35;6.43;;;;;;;25.56;46.05;100226.59;5038306;28;20098;-68
2022/08/06 23:09:41;;;;;;;8.55;6.38;;;;;;;25.48;45.41;100231.63;5040493;28;20589;-66
2022/08/06 23:12:11;;;;;;;8.45;6.07;;;;;;;26.22;45.04;100233.00;5043293;28;20061;-66
2022/08/06 23:14:36;;;;;;;8.60;6.05;;;;;;;26.22;45.09;100135.28;5042634;28;20048;-67
2022/08/06 23:17:04;;;;;;;8.48;6.93;;;;;;;27.26;44.31;100229.38;5040557;28;20443;-67
2022/08/06 23:19:29;;;;;;;8.48;7.63;;;;;;;26.99;44.23;100132.53;5047469;28;20048;-67
2022/08/06 23:21:55;;;;;;;9.07;6.70;;;;;;;27.85;44.17;100229.50;5045842;28;20036;-66
2022/08/06 23:24:20;;;;;;;7.55;5.90;;;;;;;27.94;44.20;100218.03;5045777;28;20051;-66
2022/08/06 23:26:47;;;;;;;11.85;6.68;;;;;;;28.14;44.02;100231.81;5042580;28;20048;-66
2022/08/06 23:29:12;;;;;;;8.80;6.40;;;;;;;28.30;44.75;100240.47;5043946;28;20037;-67
2022/08/06 23:31:39;;;;;;;12.68;6.55;;;;;;;28.33;44.51;100231.25;5040915;28;20502;-67
2022/08/06 23:34:05;;;;;;;11.43;6.63;;;;;;;28.47;44.29;100236.50;5029737;28;20037;-66
2022/08/06 23:36:31;;;;;;;9.27;6.18;;;;;;;28.51;44.96;100229.03;5024704;28;20056;-67
2022/08/06 23:38:57;;;;;;;11.48;7.00;;;;;;;28.36;45.44;100207.63;5021568;28;20416;-67
2022/08/06 23:41:23;;;;;;;9.27;6.63;;;;;;;28.67;44.92;100236.78;5024195;28;20044;-67
2022/08/06 23:43:49;;;;;;;10.57;6.07;;;;;;;28.74;44.88;100228.06;5025021;28;20134;-66
2022/08/06 23:46:15;;;;;;;8.40;5.47;;;;;;;28.19;44.93;100144.16;5029568;28;20033;-67
2022/08/06 23:48:40;;;;;;;10.52;6.82;;;;;;;28.80;45.12;100224.91;5026613;28;20045;-67
2022/08/06 23:51:06;;;;;;;10.20;6.70;;;;;;;28.74;45.11;100211.00;5026123;28;20083;-67
2022/08/06 23:53:36;;;;;;;9.07;6.28;;;;;;;28.92;45.07;100236.56;5026329;28;20052;-67
2022/08/06 23:56:03;;;;;;;8.73;6.90;;;;;;;28.55;44.57;100176.50;5020219;28;20094;-65
2022/08/06 23:58:29;;;;;;;10.13;7.18;;;;;;;28.98;44.96;100236.06;5021631;28;20029;-65
